Terminal Aerodrome Forecast
Issued by NWS

Home | Current Version | Previous Version | Text Only | Print | Product List | Glossary On
Versions: 1 2 3 4 5 6 7 8 9 10 11 12 13 14 15 16 17 18 19 20 21 22 23 24
000
FTUS42 KFFC 201733
TAFRYY
TAF
KRYY 201733Z 2018/2118 04005KT P6SM BKN009 OVC015
     FM202100 00000KT P6SM BKN025
     FM210500 00000KT 5SM BR OVC019
     FM210800 00000KT 4SM BR OVC009
     FM211200 00000KT 2SM BR OVC005
     FM211400 07004KT 3SM BR BKN007 OVC015
     FM211600 08005KT P6SM BKN015=

USA.gov is the U.S. government's official web portal to all federal, state and local government web resources and services.